Time;durP1;ratioP1;P1;durP2;ratioP2;P2;SDS_P1;SDS_P2;PMS_P1;PMS_P2;Temp;Humidity;BMP_temperature;BMP_pressure;BME280_temperature;BME280_humidity;BME280_pressure;Samples;Min_cycle;Max_cycle;Signal;HPM_P1;HPM_P2
2023/12/06 00:02:12;;;;;;;61.35;27.13;;;;;;;4.50;100.00;101112.47;5209942;28;20021;-73
2023/12/06 00:04:44;;;;;;;55.78;25.45;;;;;;;4.54;100.00;101105.09;5209167;28;20037;-73
2023/12/06 00:07:14;;;;;;;58.92;26.27;;;;;;;4.61;100.00;101116.94;5210297;28;20025;-73
2023/12/06 00:09:45;;;;;;;57.60;25.88;;;;;;;4.65;100.00;101123.69;5209694;28;20021;-73
2023/12/06 00:12:15;;;;;;;57.55;26.70;;;;;;;4.67;100.00;101130.59;5216430;28;20020;-73
2023/12/06 00:14:46;;;;;;;56.38;24.92;;;;;;;4.72;100.00;101126.69;5206213;28;20061;-73
2023/12/06 00:17:16;;;;;;;58.00;25.58;;;;;;;4.75;100.00;101129.13;5205385;28;20393;-73
2023/12/06 00:19:46;;;;;;;56.47;26.05;;;;;;;4.77;100.00;101121.88;5210671;28;20021;-73
2023/12/06 00:22:17;;;;;;;56.85;26.67;;;;;;;4.84;100.00;101121.28;5215579;28;20552;-73
2023/12/06 00:24:48;;;;;;;62.80;26.42;;;;;;;4.83;100.00;101138.19;5212064;28;20060;-73
2023/12/06 00:27:18;;;;;;;64.13;26.52;;;;;;;4.88;100.00;101133.34;5212392;28;20025;-73
2023/12/06 00:29:49;;;;;;;55.25;25.88;;;;;;;4.87;100.00;101137.00;5211368;28;20054;-73
2023/12/06 00:32:19;;;;;;;55.58;26.38;;;;;;;4.91;100.00;101142.88;5209028;28;20443;-73
2023/12/06 00:34:50;;;;;;;59.33;26.42;;;;;;;4.88;100.00;101145.81;5213881;28;20028;-73
2023/12/06 00:37:20;;;;;;;57.70;27.83;;;;;;;4.88;100.00;101149.31;5216412;28;20393;-73
2023/12/06 00:39:51;;;;;;;55.75;25.77;;;;;;;4.94;100.00;101150.63;5214186;28;20029;-73
2023/12/06 00:42:21;;;;;;;56.17;26.10;;;;;;;4.91;100.00;101157.03;5211694;28;20045;-73
2023/12/06 00:44:51;;;;;;;57.88;26.58;;;;;;;4.97;100.00;101152.19;5211615;28;20422;-73
2023/12/06 00:47:22;;;;;;;55.92;26.52;;;;;;;5.00;100.00;101163.44;5212944;28;20035;-73
2023/12/06 00:49:52;;;;;;;55.63;27.52;;;;;;;5.02;100.00;101161.50;5212668;28;20033;-73
2023/12/06 00:52:23;;;;;;;51.50;25.48;;;;;;;5.03;100.00;101165.00;5214018;28;20027;-73
2023/12/06 00:54:54;;;;;;;59.90;27.08;;;;;;;5.01;100.00;101159.78;5212641;28;20044;-73
2023/12/06 00:57:24;;;;;;;55.28;25.67;;;;;;;5.02;100.00;101163.28;5210552;28;20033;-73
2023/12/06 00:59:55;;;;;;;56.50;27.60;;;;;;;4.95;100.00;101165.59;5210999;28;20033;-73
2023/12/06 01:02:25;;;;;;;59.75;26.88;;;;;;;4.98;100.00;101170.69;5212043;28;20145;-74
2023/12/06 01:04:56;;;;;;;58.42;27.02;;;;;;;4.97;100.00;101169.00;5209771;28;20021;-73
2023/12/06 01:07:27;;;;;;;56.53;26.17;;;;;;;5.01;100.00;101174.91;5217808;28;20104;-73
2023/12/06 01:09:58;;;;;;;48.90;25.30;;;;;;;5.03;100.00;101179.16;5208606;28;20037;-73
2023/12/06 01:12:28;;;;;;;54.88;26.40;;;;;;;5.07;100.00;101177.94;5205350;28;20653;-73
2023/12/06 01:14:59;;;;;;;56.17;25.17;;;;;;;5.08;100.00;101184.09;5207188;28;20071;-74
2023/12/06 01:17:32;;;;;;;54.70;27.67;;;;;;;5.10;100.00;101187.47;5215056;28;20031;-73
2023/12/06 01:20:03;;;;;;;58.28;25.73;;;;;;;5.11;100.00;101191.81;5206096;28;20025;-73
2023/12/06 01:22:33;;;;;;;55.63;27.38;;;;;;;5.18;100.00;101185.06;5210601;28;20075;-73
2023/12/06 01:25:04;;;;;;;56.08;25.60;;;;;;;5.15;100.00;101198.59;5214907;28;20025;-73
2023/12/06 01:27:35;;;;;;;55.60;25.02;;;;;;;5.13;100.00;101187.25;5216608;28;20483;-73
2023/12/06 01:30:06;;;;;;;52.22;25.88;;;;;;;5.13;100.00;101192.56;5207401;28;20105;-73
2023/12/06 01:32:36;;;;;;;53.85;26.85;;;;;;;5.14;100.00;101197.75;5215045;28;20037;-73
2023/12/06 01:35:07;;;;;;;65.22;27.80;;;;;;;5.13;100.00;101198.72;5206823;28;20053;-73
2023/12/06 01:37:38;;;;;;;52.80;24.67;;;;;;;5.17;100.00;101202.84;5209009;28;20573;-73
2023/12/06 01:40:08;;;;;;;52.38;25.48;;;;;;;5.16;100.00;101210.91;5208151;28;20025;-73
2023/12/06 01:42:39;;;;;;;51.42;25.25;;;;;;;5.16;100.00;101217.06;5216193;28;20288;-73
2023/12/06 01:45:09;;;;;;;56.80;27.85;;;;;;;5.11;100.00;101213.09;5213620;28;20083;-73
2023/12/06 01:47:42;;;;;;;61.35;28.33;;;;;;;5.12;100.00;101220.09;5207515;28;20052;-73
2023/12/06 01:50:14;;;;;;;55.03;26.73;;;;;;;5.13;100.00;101227.13;5211124;28;20028;-73
2023/12/06 01:52:44;;;;;;;57.92;25.98;;;;;;;5.12;100.00;101228.06;5205263;28;20480;-73
2023/12/06 01:55:15;;;;;;;61.85;28.45;;;;;;;5.11;100.00;101234.38;5209614;28;20037;-73
2023/12/06 01:57:45;;;;;;;64.53;28.80;;;;;;;5.09;100.00;101234.50;5207752;28;20028;-73
2023/12/06 02:00:16;;;;;;;64.60;29.55;;;;;;;5.12;100.00;101236.94;5209277;28;20095;-74
2023/12/06 02:02:47;;;;;;;63.38;26.27;;;;;;;5.14;100.00;101239.47;5200219;28;20104;-73
2023/12/06 02:05:18;;;;;;;66.70;30.23;;;;;;;5.14;100.00;101239.47;5212153;28;20033;-74
2023/12/06 02:07:50;;;;;;;63.90;29.38;;;;;;;5.13;100.00;101237.78;5210274;28;20056;-74
2023/12/06 02:10:21;;;;;;;64.82;29.23;;;;;;;5.12;100.00;101236.06;5211372;28;20100;-74
2023/12/06 02:12:52;;;;;;;66.00;28.60;;;;;;;5.14;100.00;101244.78;5211552;28;20041;-74
2023/12/06 02:15:22;;;;;;;60.55;28.27;;;;;;;5.09;100.00;101237.16;5208048;28;20024;-74
2023/12/06 02:18:06;;;;;;;64.65;29.45;;;;;;;5.08;100.00;101239.94;5206766;28;20158;-73
2023/12/06 02:20:37;;;;;;;72.88;30.98;;;;;;;5.08;100.00;101234.63;5208509;28;20112;-74
2023/12/06 02:23:09;;;;;;;69.85;30.10;;;;;;;5.08;100.00;101246.13;5209032;28;20025;-74
2023/12/06 02:25:41;;;;;;;66.18;28.27;;;;;;;5.10;100.00;101243.31;5216138;28;20025;-74
2023/12/06 02:28:12;;;;;;;68.15;30.20;;;;;;;5.10;100.00;101240.66;5215033;28;20072;-73
2023/12/06 02:31:03;;;;;;;69.53;31.48;;;;;;;5.09;100.00;101242.47;5222473;28;20447;-73
2023/12/06 02:33:50;;;;;;;67.90;29.77;;;;;;;5.13;100.00;101243.09;5208357;28;20395;-73
2023/12/06 02:36:29;;;;;;;71.47;30.95;;;;;;;5.12;100.00;101241.38;5211669;28;20439;-73
2023/12/06 02:39:00;;;;;;;72.70;31.42;;;;;;;5.08;100.00;101240.78;5211702;28;20025;-74
2023/12/06 02:41:33;;;;;;;68.68;30.35;;;;;;;5.06;100.00;101242.72;5218774;28;20082;-74
2023/12/06 02:44:03;;;;;;;73.60;31.58;;;;;;;5.10;100.00;101243.31;5207174;28;20550;-73
2023/12/06 02:46:36;;;;;;;72.68;31.30;;;;;;;5.06;100.00;101236.53;5214375;28;20025;-74
2023/12/06 02:49:07;;;;;;;67.47;31.38;;;;;;;5.04;100.00;101247.31;5207745;28;20104;-73
2023/12/06 02:51:37;;;;;;;75.28;32.00;;;;;;;5.04;100.00;101243.81;5213162;28;20059;-74
2023/12/06 02:54:07;;;;;;;71.57;31.60;;;;;;;5.04;100.00;101243.81;5214525;28;20024;-74
2023/12/06 02:56:39;;;;;;;74.35;33.05;;;;;;;5.07;100.00;101251.53;5212985;28;20044;-73
2023/12/06 02:59:09;;;;;;;77.70;31.40;;;;;;;5.06;100.00;101245.38;5209583;28;20024;-73
2023/12/06 03:01:46;;;;;;;76.18;31.92;;;;;;;5.05;100.00;101254.31;5208859;28;20234;-74
2023/12/06 03:04:16;;;;;;;74.57;30.15;;;;;;;5.08;100.00;101253.25;5209158;28;20441;-74
2023/12/06 03:06:52;;;;;;;85.55;31.70;;;;;;;5.08;100.00;101258.56;5214036;28;20025;-73
2023/12/06 03:09:23;;;;;;;75.20;32.92;;;;;;;5.06;100.00;101263.13;5205779;28;20029;-74
2023/12/06 03:11:54;;;;;;;79.93;33.28;;;;;;;5.04;100.00;101265.09;5208813;28;20025;-73
2023/12/06 03:14:24;;;;;;;88.10;32.53;;;;;;;5.04;100.00;101265.09;5203913;28;20149;-73
2023/12/06 03:16:55;;;;;;;72.70;30.23;;;;;;;5.04;100.00;101260.63;5211904;28;20123;-73
2023/12/06 03:19:25;;;;;;;81.45;34.47;;;;;;;5.04;100.00;101265.09;5209908;28;20438;-73
2023/12/06 03:21:56;;;;;;;70.80;31.00;;;;;;;5.02;100.00;101262.56;5204996;28;20029;-74
2023/12/06 03:24:26;;;;;;;76.28;32.30;;;;;;;5.09;100.00;101270.88;5212080;28;20082;-73
2023/12/06 03:26:57;;;;;;;68.90;29.52;;;;;;;5.11;100.00;101269.78;5206116;28;20384;-73
2023/12/06 03:29:27;;;;;;;73.22;31.27;;;;;;;5.17;100.00;101276.44;5215100;28;20029;-73
2023/12/06 03:31:58;;;;;;;78.82;30.48;;;;;;;5.22;100.00;101271.63;5209104;28;20152;-74
2023/12/06 03:34:28;;;;;;;78.80;32.58;;;;;;;5.18;100.00;101265.69;5208507;28;20036;-73
2023/12/06 03:37:00;;;;;;;81.90;32.42;;;;;;;5.19;100.00;101262.06;5212115;28;20021;-73
2023/12/06 03:39:32;;;;;;;71.80;30.42;;;;;;;5.20;100.00;101266.41;5204879;28;20029;-74
2023/12/06 03:42:03;;;;;;;69.78;29.35;;;;;;;5.18;100.00;101264.84;5205809;28;20029;-73
2023/12/06 03:44:33;;;;;;;76.55;31.73;;;;;;;5.16;100.00;101272.09;5206577;28;20036;-73
2023/12/06 03:47:04;;;;;;;79.25;32.72;;;;;;;5.17;100.00;101266.66;5209624;28;20540;-74
2023/12/06 03:49:35;;;;;;;73.68;31.70;;;;;;;5.20;100.00;101265.56;5206521;28;20041;-74
2023/12/06 03:52:07;;;;;;;84.10;32.88;;;;;;;5.18;100.00;101270.16;5210429;28;20025;-74
2023/12/06 03:54:38;;;;;;;77.38;30.40;;;;;;;5.17;100.00;101273.78;5218265;28;20396;-74
2023/12/06 03:57:08;;;;;;;77.53;29.52;;;;;;;5.20;100.00;101282.38;5210678;28;20034;-74
2023/12/06 03:59:39;;;;;;;80.47;31.67;;;;;;;5.26;100.00;101277.53;5208161;28;20342;-73
2023/12/06 04:02:09;;;;;;;71.78;31.48;;;;;;;5.23;100.00;101283.94;5214964;28;20017;-74
2023/12/06 04:04:39;;;;;;;81.97;32.58;;;;;;;5.21;100.00;101285.88;5211659;28;20357;-74
2023/12/06 04:07:10;;;;;;;78.45;30.58;;;;;;;5.24;100.00;101287.47;5215422;28;20024;-73
2023/12/06 04:09:40;;;;;;;74.13;31.35;;;;;;;5.26;100.00;101281.03;5211996;28;20078;-73
2023/12/06 04:12:11;;;;;;;76.50;30.92;;;;;;;5.27;100.00;101287.19;5210925;28;20131;-73
2023/12/06 04:14:42;;;;;;;76.22;31.73;;;;;;;5.29;100.00;101296.75;5216876;28;20251;-73
2023/12/06 04:17:12;;;;;;;72.20;31.17;;;;;;;5.29;100.00;101296.75;5211300;28;20040;-73
2023/12/06 04:19:42;;;;;;;72.97;31.17;;;;;;;5.33;100.00;101302.69;5215430;28;20476;-73
2023/12/06 04:22:13;;;;;;;68.40;30.33;;;;;;;5.34;100.00;101305.22;5206971;28;20030;-73
2023/12/06 04:24:43;;;;;;;74.43;32.05;;;;;;;5.38;100.00;101306.69;5209684;28;20094;-74
2023/12/06 04:27:14;;;;;;;69.05;30.13;;;;;;;5.40;100.00;101304.75;5203638;28;20014;-74
2023/12/06 04:29:45;;;;;;;74.28;31.77;;;;;;;5.41;100.00;101305.56;5212409;28;20083;-74
2023/12/06 04:32:15;;;;;;;77.50;29.88;;;;;;;5.36;100.00;101305.09;5210388;28;20068;-73
2023/12/06 04:34:48;;;;;;;66.50;30.25;;;;;;;5.32;100.00;101304.50;5213715;28;20028;-73
2023/12/06 04:37:19;;;;;;;69.22;29.67;;;;;;;5.34;100.00;101310.56;5202953;28;20076;-73
2023/12/06 04:39:49;;;;;;;69.75;30.35;;;;;;;5.30;100.00;101309.09;5209152;28;20420;-74
2023/12/06 04:42:20;;;;;;;66.93;29.40;;;;;;;5.35;100.00;101311.38;5212079;28;20115;-74
2023/12/06 04:44:51;;;;;;;75.20;29.08;;;;;;;5.40;100.00;101318.03;5207927;28;20040;-73
2023/12/06 04:47:21;;;;;;;74.35;30.33;;;;;;;5.35;100.00;101317.56;5212132;28;20033;-74
2023/12/06 04:49:52;;;;;;;65.85;29.33;;;;;;;5.38;100.00;101321.81;5210717;28;20029;-74
2023/12/06 04:52:22;;;;;;;71.20;29.85;;;;;;;5.40;100.00;101323.38;5208552;28;20029;-74
2023/12/06 04:54:52;;;;;;;67.05;29.98;;;;;;;5.38;100.00;101327.97;5213897;28;20095;-73
2023/12/06 04:57:23;;;;;;;61.30;27.38;;;;;;;5.34;100.00;101321.19;5211501;28;20395;-74
2023/12/06 04:59:53;;;;;;;69.25;30.95;;;;;;;5.40;100.00;101334.00;5211563;28;20033;-73
2023/12/06 05:02:24;;;;;;;75.53;30.25;;;;;;;5.38;100.00;101337.78;5212435;28;20028;-73
2023/12/06 05:04:54;;;;;;;71.88;30.65;;;;;;;5.38;100.00;101340.44;5212177;28;20052;-73
2023/12/06 05:07:25;;;;;;;70.43;28.77;;;;;;;5.36;100.00;101337.88;5206157;28;20025;-74
2023/12/06 05:09:55;;;;;;;64.88;29.55;;;;;;;5.30;100.00;101340.16;5210468;28;20037;-74
2023/12/06 05:12:26;;;;;;;66.65;30.05;;;;;;;5.29;100.00;101344.66;5213288;28;20028;-74
2023/12/06 05:14:56;;;;;;;65.45;27.67;;;;;;;5.32;100.00;101348.88;5210461;28;20492;-74
2023/12/06 05:17:27;;;;;;;67.47;28.20;;;;;;;5.35;100.00;101344.16;5209945;28;20146;-74
2023/12/06 05:19:57;;;;;;;60.22;27.20;;;;;;;5.29;100.00;101347.31;5210976;28;20080;-74
2023/12/06 05:22:28;;;;;;;66.88;28.50;;;;;;;5.30;100.00;101342.84;5211158;28;20035;-74
2023/12/06 05:24:58;;;;;;;63.53;27.88;;;;;;;5.35;100.00;101341.50;5205507;28;20378;-74
2023/12/06 05:27:29;;;;;;;58.83;26.73;;;;;;;5.34;100.00;101350.47;5216218;28;20017;-74
2023/12/06 05:29:59;;;;;;;62.88;27.92;;;;;;;5.32;100.00;101343.53;5207400;28;20036;-74
2023/12/06 05:32:30;;;;;;;62.78;26.98;;;;;;;5.37;100.00;101354.69;5211181;28;20032;-74
2023/12/06 05:35:01;;;;;;;67.30;28.30;;;;;;;5.36;100.00;101350.31;5207572;28;20029;-73
2023/12/06 05:37:32;;;;;;;65.80;26.80;;;;;;;5.31;100.00;101356.00;5214941;28;20049;-74
2023/12/06 05:40:03;;;;;;;60.90;26.13;;;;;;;5.33;100.00;101366.56;5208931;28;20130;-74
2023/12/06 05:42:34;;;;;;;65.75;25.83;;;;;;;5.32;100.00;101365.72;5212001;28;20515;-74
2023/12/06 05:45:05;;;;;;;66.13;28.15;;;;;;;5.37;100.00;101367.97;5227560;28;20030;-74
2023/12/06 05:47:35;;;;;;;69.45;27.70;;;;;;;5.39;100.00;101374.06;5212282;28;20026;-74
2023/12/06 05:50:06;;;;;;;67.88;30.20;;;;;;;5.39;100.00;101379.38;5209725;28;20030;-74
2023/12/06 05:52:37;;;;;;;61.65;27.67;;;;;;;5.36;100.00;101377.78;5213378;28;20112;-74
2023/12/06 05:55:08;;;;;;;66.65;27.67;;;;;;;5.30;100.00;101378.25;5206573;28;20116;-73
2023/12/06 05:57:38;;;;;;;67.63;28.30;;;;;;;5.37;100.00;101397.25;5211408;28;20294;-73
2023/12/06 06:00:12;;;;;;;65.88;28.45;;;;;;;5.35;100.00;101392.06;5209419;28;20028;-73
2023/12/06 06:02:43;;;;;;;66.85;27.40;;;;;;;5.36;100.00;101385.75;5210881;28;20100;-73
2023/12/06 06:05:13;;;;;;;77.03;31.50;;;;;;;5.33;100.00;101391.34;5209961;28;20030;-74
2023/12/06 06:07:44;;;;;;;65.55;29.00;;;;;;;5.30;100.00;101382.75;5212820;28;20033;-74
2023/12/06 06:10:14;;;;;;;67.40;31.13;;;;;;;5.27;100.00;101383.84;5208391;28;20388;-74
2023/12/06 06:12:45;;;;;;;67.70;29.17;;;;;;;5.29;100.00;101389.88;5211255;28;20040;-74
2023/12/06 06:15:16;;;;;;;90.68;30.92;;;;;;;5.29;100.00;101389.88;5207333;28;20136;-74
2023/12/06 06:17:46;;;;;;;81.10;32.13;;;;;;;5.26;100.00;101390.09;5209729;28;20032;-74
2023/12/06 06:20:17;;;;;;;75.60;31.20;;;;;;;5.23;100.00;101378.88;5206696;28;20418;-74
2023/12/06 06:22:47;;;;;;;82.43;32.35;;;;;;;5.20;100.00;101382.59;5208067;28;20032;-74
2023/12/06 06:25:18;;;;;;;81.38;32.92;;;;;;;5.17;100.00;101381.03;5210651;28;20049;-74
2023/12/06 06:27:48;;;;;;;71.13;31.17;;;;;;;5.15;100.00;101392.75;5212028;28;20016;-74
2023/12/06 06:30:19;;;;;;;82.45;34.30;;;;;;;5.17;100.00;101396.13;5209119;28;20425;-74
2023/12/06 06:32:49;;;;;;;74.70;31.50;;;;;;;5.13;100.00;101386.72;5209921;28;20017;-74
2023/12/06 06:35:20;;;;;;;73.80;30.20;;;;;;;5.12;100.00;101391.19;5208763;28;20029;-74
2023/12/06 06:37:50;;;;;;;69.93;29.42;;;;;;;5.11;100.00;101392.13;5210105;28;20040;-74
2023/12/06 06:40:22;;;;;;;85.60;34.28;;;;;;;5.07;100.00;101392.47;5210853;28;20034;-74
2023/12/06 06:42:54;;;;;;;68.13;31.83;;;;;;;5.07;100.00;101397.81;5203903;28;20182;-74
2023/12/06 06:45:25;;;;;;;77.57;32.53;;;;;;;5.08;100.00;101394.19;5212700;28;20025;-74
2023/12/06 06:47:55;;;;;;;78.25;31.33;;;;;;;5.06;100.00;101401.44;5206400;28;20035;-74
2023/12/06 06:50:26;;;;;;;73.28;33.22;;;;;;;5.03;100.00;101399.03;5210256;28;20598;-74
2023/12/06 06:52:59;;;;;;;73.28;29.73;;;;;;;5.01;100.00;101403.59;5209875;28;20032;-74
2023/12/06 06:55:29;;;;;;;77.72;32.40;;;;;;;5.02;100.00;101402.63;5204627;28;20515;-74
2023/12/06 06:58:03;;;;;;;76.70;30.05;;;;;;;5.00;100.00;101404.56;5208549;28;20022;-74
2023/12/06 07:00:33;;;;;;;75.63;32.92;;;;;;;4.97;100.00;101408.31;5206281;28;20384;-74
2023/12/06 07:03:04;;;;;;;74.47;30.77;;;;;;;4.90;100.00;101402.59;5209389;28;20038;-74
2023/12/06 07:05:34;;;;;;;81.20;30.98;;;;;;;4.87;100.00;101405.50;5210248;28;20541;-74
2023/12/06 07:08:05;;;;;;;145.18;55.83;;;;;;;4.85;100.00;101419.84;5190497;28;20288;-74
2023/12/06 07:10:37;;;;;;;85.82;38.47;;;;;;;4.82;100.00;101418.28;5206504;28;20403;-74
2023/12/06 07:13:07;;;;;;;75.15;31.88;;;;;;;4.80;100.00;101430.00;5206739;28;20612;-74
2023/12/06 07:15:38;;;;;;;76.28;32.17;;;;;;;4.84;100.00;101424.34;5203363;28;20037;-75
2023/12/06 07:18:08;;;;;;;82.90;31.88;;;;;;;4.83;100.00;101422.66;5206683;28;20377;-74
2023/12/06 07:20:39;;;;;;;76.40;32.75;;;;;;;4.82;100.00;101431.59;5211566;28;20404;-74
2023/12/06 07:23:09;;;;;;;92.05;42.80;;;;;;;4.83;100.00;101437.75;5201535;28;20030;-74
2023/12/06 07:25:40;;;;;;;78.45;35.30;;;;;;;4.88;100.00;101441.75;5206411;28;20210;-74
2023/12/06 07:28:11;;;;;;;81.50;35.15;;;;;;;4.88;100.00;101451.53;5206580;28;20070;-74
2023/12/06 07:30:41;;;;;;;82.78;33.03;;;;;;;4.93;100.00;101446.72;5205487;28;20181;-74
2023/12/06 07:33:12;;;;;;;73.05;29.58;;;;;;;4.92;100.00;101459.19;5212864;28;20033;-74
2023/12/06 07:35:43;;;;;;;131.60;52.90;;;;;;;4.92;100.00;101456.53;5213119;28;20395;-74
2023/12/06 07:38:13;;;;;;;147.68;70.32;;;;;;;4.93;100.00;101460.88;5212137;28;20033;-74
2023/12/06 07:40:44;;;;;;;77.38;32.83;;;;;;;4.97;100.00;101465.94;5214129;28;20033;-74
2023/12/06 07:43:14;;;;;;;97.97;57.13;;;;;;;4.96;100.00;101465.09;5210935;28;20048;-74
2023/12/06 07:45:45;;;;;;;63.15;26.52;;;;;;;5.02;100.00;101463.78;5209970;28;20033;-74
2023/12/06 07:48:17;;;;;;;82.32;39.03;;;;;;;4.97;100.00;101472.13;5203892;28;20021;-74
2023/12/06 07:50:50;;;;;;;61.28;28.80;;;;;;;4.94;100.00;101467.03;5206128;28;20032;-74
2023/12/06 07:53:21;;;;;;;59.70;27.33;;;;;;;4.92;100.00;101468.97;5209298;28;20562;-74
2023/12/06 07:55:55;;;;;;;59.22;23.13;;;;;;;4.96;100.00;101480.22;5208601;28;20025;-74
2023/12/06 07:58:30;;;;;;;53.08;23.45;;;;;;;4.94;100.00;101483.00;5211667;28;20036;-74
2023/12/06 08:01:01;;;;;;;47.15;21.73;;;;;;;4.91;100.00;101477.88;5210821;28;20030;-74
2023/12/06 08:03:31;;;;;;;48.10;21.05;;;;;;;4.87;100.00;101481.72;5208674;28;20684;-74
2023/12/06 08:06:05;;;;;;;54.95;21.33;;;;;;;4.85;100.00;101479.19;5209234;28;20030;-74
2023/12/06 08:08:36;;;;;;;49.95;21.92;;;;;;;4.85;100.00;101494.31;5199031;28;20502;-74
2023/12/06 08:11:06;;;;;;;51.00;22.80;;;;;;;4.84;100.00;101493.47;5210304;28;20022;-74
2023/12/06 08:13:37;;;;;;;46.72;21.27;;;;;;;4.83;100.00;101496.25;5210253;28;20025;-74
2023/12/06 08:16:08;;;;;;;50.30;21.55;;;;;;;4.81;100.00;101498.16;5206598;28;20423;-74
2023/12/06 08:18:38;;;;;;;52.80;21.27;;;;;;;4.75;100.00;101494.13;5206232;28;20029;-74
2023/12/06 08:21:09;;;;;;;50.20;20.08;;;;;;;4.71;100.00;101505.09;5203592;28;20041;-74
2023/12/06 08:23:40;;;;;;;55.58;21.80;;;;;;;4.67;100.00;101508.00;5202471;28;20032;-74
2023/12/06 08:26:10;;;;;;;55.58;20.65;;;;;;;4.64;100.00;101505.56;5203818;28;20235;-74
2023/12/06 08:28:41;;;;;;;48.20;20.50;;;;;;;4.56;100.00;101510.56;5201684;28;20022;-74
2023/12/06 08:31:12;;;;;;;45.25;21.35;;;;;;;4.50;100.00;101513.66;5206553;28;20025;-74
2023/12/06 08:33:42;;;;;;;48.08;19.95;;;;;;;4.65;100.00;101514.38;5198951;28;20026;-74
2023/12/06 08:36:14;;;;;;;54.65;20.10;;;;;;;4.92;100.00;101520.34;5202269;28;20613;-74
2023/12/06 08:38:45;;;;;;;45.58;18.73;;;;;;;5.29;100.00;101520.25;5204516;28;20026;-74
2023/12/06 08:41:15;;;;;;;39.08;17.70;;;;;;;5.74;100.00;101516.84;5201593;28;20499;-74
2023/12/06 08:43:46;;;;;;;37.15;18.00;;;;;;;6.00;100.00;101525.50;5201471;28;20112;-74
2023/12/06 08:46:16;;;;;;;39.70;18.20;;;;;;;6.27;100.00;101533.97;5201954;28;20040;-74
2023/12/06 08:48:47;;;;;;;40.00;16.13;;;;;;;6.51;100.00;101531.19;5206100;28;20517;-74
2023/12/06 08:51:17;;;;;;;31.63;16.27;;;;;;;6.61;100.00;101536.63;5201984;28;20025;-74
2023/12/06 08:53:48;;;;;;;32.72;16.67;;;;;;;7.07;100.00;101536.38;5202760;28;20032;-74
2023/12/06 08:56:18;;;;;;;34.67;17.83;;;;;;;7.03;100.00;101545.63;5205211;28;20404;-74
2023/12/06 08:58:48;;;;;;;37.05;21.75;;;;;;;7.14;100.00;101542.06;5201758;28;20029;-74
2023/12/06 09:01:19;;;;;;;27.08;12.73;;;;;;;7.00;100.00;101549.38;5206588;28;20066;-73
2023/12/06 09:03:50;;;;;;;63.28;41.08;;;;;;;6.70;100.00;101551.88;5204830;28;20210;-73
2023/12/06 09:06:20;;;;;;;43.42;24.88;;;;;;;6.49;100.00;101539.31;5198423;28;20496;-75
2023/12/06 09:08:51;;;;;;;36.63;19.70;;;;;;;6.41;100.00;101540.88;5203069;28;20021;-74
2023/12/06 09:11:21;;;;;;;35.70;17.08;;;;;;;6.40;100.00;101533.84;5201131;28;20207;-74
2023/12/06 09:13:52;;;;;;;47.42;17.48;;;;;;;6.66;100.00;101535.25;5203915;28;20385;-74
2023/12/06 09:16:22;;;;;;;29.75;16.20;;;;;;;6.90;100.00;101539.59;5200358;28;20033;-73
2023/12/06 09:18:52;;;;;;;33.75;13.13;;;;;;;6.98;100.00;101540.66;5204863;28;20621;-74
2023/12/06 09:21:27;;;;;;;33.15;14.48;;;;;;;6.93;100.00;101544.69;5203632;28;20033;-74
2023/12/06 09:23:57;;;;;;;36.60;14.07;;;;;;;6.83;100.00;101547.25;5200581;28;20021;-74
2023/12/06 09:26:28;;;;;;;27.75;12.77;;;;;;;6.79;100.00;101550.28;5200812;28;20030;-74
2023/12/06 09:29:00;;;;;;;34.92;17.42;;;;;;;6.69;100.00;101551.03;5200212;28;20017;-74
2023/12/06 09:31:33;;;;;;;25.25;12.52;;;;;;;6.65;100.00;101557.56;5197894;28;20132;-74
2023/12/06 09:34:05;;;;;;;43.47;19.02;;;;;;;6.57;100.00;101552.00;5197339;28;20503;-74
2023/12/06 09:36:35;;;;;;;34.28;14.80;;;;;;;6.47;100.00;101551.88;5201142;28;20034;-74
2023/12/06 09:39:06;;;;;;;39.80;21.67;;;;;;;6.44;100.00;101561.97;5199811;28;20028;-74
2023/12/06 09:41:37;;;;;;;34.90;16.58;;;;;;;6.38;100.00;101563.31;5197365;28;20025;-74
2023/12/06 09:44:07;;;;;;;51.70;26.35;;;;;;;6.40;100.00;101569.34;5203566;28;20469;-74
2023/12/06 09:46:39;;;;;;;52.97;33.28;;;;;;;6.41;100.00;101570.19;5202843;28;20061;-74
2023/12/06 09:49:10;;;;;;;29.25;15.32;;;;;;;6.45;100.00;101575.16;5200529;28;20029;-74
2023/12/06 09:51:41;;;;;;;27.98;12.75;;;;;;;6.48;100.00;101572.25;5200630;28;20440;-74
2023/12/06 09:54:12;;;;;;;32.63;14.77;;;;;;;6.52;100.00;101580.00;5203820;28;20116;-74
2023/12/06 09:56:43;;;;;;;30.67;12.60;;;;;;;6.52;100.00;101583.50;5199303;28;20028;-74
2023/12/06 09:59:14;;;;;;;35.58;14.95;;;;;;;6.51;100.00;101579.16;5205420;28;20327;-74
2023/12/06 10:01:44;;;;;;;22.13;11.73;;;;;;;6.58;100.00;101591.03;5201175;28;20022;-74
2023/12/06 10:04:15;;;;;;;29.75;13.98;;;;;;;6.63;100.00;101588.84;5201231;28;20032;-74
2023/12/06 10:06:49;;;;;;;26.58;12.02;;;;;;;6.62;100.00;101591.63;5195075;28;20030;-74
2023/12/06 10:09:20;;;;;;;32.67;12.88;;;;;;;6.61;100.00;101595.28;5205563;28;20017;-74
2023/12/06 10:11:50;;;;;;;28.02;13.18;;;;;;;6.59;100.00;101603.41;5202701;28;20104;-74
2023/12/06 10:14:21;;;;;;;41.78;18.17;;;;;;;6.62;100.00;101597.81;5201438;28;20048;-74
2023/12/06 10:16:53;;;;;;;53.92;26.83;;;;;;;6.65;100.00;101596.72;5200381;28;20032;-74
2023/12/06 10:19:23;;;;;;;38.95;18.42;;;;;;;6.65;100.00;101592.25;5206022;28;20033;-74
2023/12/06 10:21:56;;;;;;;31.05;13.10;;;;;;;6.66;100.00;101593.09;5205316;28;20396;-74
2023/12/06 10:24:28;;;;;;;36.75;13.98;;;;;;;6.69;100.00;101595.50;5203260;28;20036;-74
2023/12/06 10:27:03;;;;;;;45.20;19.10;;;;;;;6.73;100.00;101597.81;5204211;28;20025;-74
2023/12/06 10:29:34;;;;;;;38.28;15.07;;;;;;;6.85;100.00;101592.47;5199174;28;20060;-74
2023/12/06 10:32:06;;;;;;;111.32;53.78;;;;;;;6.91;100.00;101592.81;5204056;28;20025;-74
2023/12/06 10:34:37;;;;;;;122.38;83.22;;;;;;;6.92;100.00;101593.66;5197457;28;20034;-74
2023/12/06 10:37:12;;;;;;;60.05;32.30;;;;;;;6.95;100.00;101596.91;5201441;28;20067;-74
2023/12/06 10:39:44;;;;;;;43.67;25.52;;;;;;;6.93;100.00;101596.22;5204277;28;20031;-74
2023/12/06 10:42:18;;;;;;;34.78;21.30;;;;;;;6.87;100.00;101602.00;5198071;28;20056;-74
2023/12/06 10:44:52;;;;;;;32.60;19.15;;;;;;;6.80;100.00;101592.81;5200509;28;20027;-74
2023/12/06 10:47:25;;;;;;;33.10;14.05;;;;;;;6.76;100.00;101594.03;5201026;28;20068;-74
2023/12/06 10:49:56;;;;;;;34.80;13.15;;;;;;;6.74;100.00;101601.34;5203760;28;20380;-74
2023/12/06 10:52:29;;;;;;;24.98;12.63;;;;;;;6.68;100.00;101604.50;5206915;28;20017;-74
2023/12/06 10:55:01;;;;;;;27.13;12.27;;;;;;;6.66;100.00;101603.75;5200518;28;20398;-74
2023/12/06 10:57:32;;;;;;;27.95;13.38;;;;;;;6.68;100.00;101600.00;5200939;28;20091;-74
2023/12/06 11:00:04;;;;;;;30.65;13.38;;;;;;;6.67;100.00;101598.28;5202707;28;20025;-74
2023/12/06 11:02:34;;;;;;;27.58;14.35;;;;;;;6.68;100.00;101608.00;5198660;28;20036;-74
2023/12/06 11:05:08;;;;;;;34.42;14.50;;;;;;;6.62;100.00;101599.63;5197729;28;20421;-74
2023/12/06 11:07:58;;;;;;;28.23;14.32;;;;;;;6.62;100.00;101605.81;5200326;28;20112;-74
2023/12/06 11:10:48;;;;;;;29.35;12.85;;;;;;;6.65;100.00;101596.72;5201812;28;20033;-74
2023/12/06 11:13:36;;;;;;;28.42;12.98;;;;;;;6.64;100.00;101609.22;5198792;28;20038;-72
2023/12/06 11:16:25;;;;;;;35.67;15.00;;;;;;;6.68;100.00;101607.16;5198425;28;20412;-74
2023/12/06 11:18:56;;;;;;;30.45;13.95;;;;;;;6.75;100.00;101601.19;5200137;28;20087;-74
2023/12/06 11:21:27;;;;;;;31.38;14.55;;;;;;;6.84;100.00;101607.63;5202908;28;20033;-74
2023/12/06 11:23:59;;;;;;;36.90;13.15;;;;;;;6.80;100.00;101605.31;5203875;28;20056;-74
2023/12/06 11:26:31;;;;;;;35.25;17.42;;;;;;;6.86;100.00;101610.16;5201610;28;20028;-73
2023/12/06 11:29:03;;;;;;;26.73;12.82;;;;;;;6.88;100.00;101606.41;5202647;28;20032;-74